sensor_id;sensor_type;location;lat;lon;timestamp;P1;durP1;ratioP1;P2;durP2;ratioP2
32319;SDS011;19080;51.750;5.888;2023-06-22T00:00:04;12.43;;;10.80;;
32319;SDS011;19080;51.750;5.888;2023-06-22T00:02:38;11.98;;;10.75;;
32319;SDS011;19080;51.750;5.888;2023-06-22T00:05:05;12.23;;;11.00;;
32319;SDS011;19080;51.750;5.888;2023-06-22T00:07:32;11.60;;;10.00;;
32319;SDS011;19080;51.750;5.888;2023-06-22T00:09:58;12.50;;;10.82;;
32319;SDS011;19080;51.750;5.888;2023-06-22T00:12:25;13.13;;;11.38;;
32319;SDS011;19080;51.750;5.888;2023-06-22T00:14:52;14.38;;;12.02;;
32319;SDS011;19080;51.750;5.888;2023-06-22T00:17:18;14.10;;;11.80;;
32319;SDS011;19080;51.750;5.888;2023-06-22T00:19:46;14.40;;;12.23;;
32319;SDS011;19080;51.750;5.888;2023-06-22T00:22:13;12.55;;;11.25;;
32319;SDS011;19080;51.750;5.888;2023-06-22T00:24:40;13.77;;;10.23;;
32319;SDS011;19080;51.750;5.888;2023-06-22T00:27:06;11.73;;;10.40;;
32319;SDS011;19080;51.750;5.888;2023-06-22T00:29:33;11.70;;;10.48;;
32319;SDS011;19080;51.750;5.888;2023-06-22T00:32:00;10.68;;;9.52;;
32319;SDS011;19080;51.750;5.888;2023-06-22T00:34:26;13.10;;;10.32;;
32319;SDS011;19080;51.750;5.888;2023-06-22T00:36:53;10.73;;;9.18;;
32319;SDS011;19080;51.750;5.888;2023-06-22T00:39:20;13.23;;;10.48;;
32319;SDS011;19080;51.750;5.888;2023-06-22T00:41:46;12.30;;;10.77;;
32319;SDS011;19080;51.750;5.888;2023-06-22T00:44:13;13.90;;;10.93;;
32319;SDS011;19080;51.750;5.888;2023-06-22T00:46:40;11.48;;;10.38;;
32319;SDS011;19080;51.750;5.888;2023-06-22T00:49:06;11.48;;;10.27;;
32319;SDS011;19080;51.750;5.888;2023-06-22T00:51:33;11.77;;;9.90;;
32319;SDS011;19080;51.750;5.888;2023-06-22T00:54:01;11.40;;;9.85;;
32319;SDS011;19080;51.750;5.888;2023-06-22T00:56:27;15.10;;;10.27;;
32319;SDS011;19080;51.750;5.888;2023-06-22T00:58:56;10.65;;;9.18;;
32319;SDS011;19080;51.750;5.888;2023-06-22T01:01:25;11.20;;;9.65;;
32319;SDS011;19080;51.750;5.888;2023-06-22T01:03:54;10.50;;;9.15;;
32319;SDS011;19080;51.750;5.888;2023-06-22T01:06:26;10.45;;;9.20;;
32319;SDS011;19080;51.750;5.888;2023-06-22T01:11:53;11.68;;;9.88;;
32319;SDS011;19080;51.750;5.888;2023-06-22T01:16:55;10.18;;;9.10;;
32319;SDS011;19080;51.750;5.888;2023-06-22T01:22:17;11.82;;;9.93;;
32319;SDS011;19080;51.750;5.888;2023-06-22T01:30:14;10.18;;;9.10;;
32319;SDS011;19080;51.750;5.888;2023-06-22T01:32:43;9.88;;;8.88;;
32319;SDS011;19080;51.750;5.888;2023-06-22T01:35:10;9.52;;;8.45;;
32319;SDS011;19080;51.750;5.888;2023-06-22T01:37:38;9.63;;;8.50;;
32319;SDS011;19080;51.750;5.888;2023-06-22T01:40:05;10.88;;;8.77;;
32319;SDS011;19080;51.750;5.888;2023-06-22T01:42:34;9.50;;;8.50;;
32319;SDS011;19080;51.750;5.888;2023-06-22T01:45:03;10.40;;;9.15;;
32319;SDS011;19080;51.750;5.888;2023-06-22T01:47:31;10.73;;;7.70;;
32319;SDS011;19080;51.750;5.888;2023-06-22T01:49:58;10.70;;;9.02;;
32319;SDS011;19080;51.750;5.888;2023-06-22T01:52:25;11.10;;;8.15;;
32319;SDS011;19080;51.750;5.888;2023-06-22T01:54:52;10.88;;;8.98;;
32319;SDS011;19080;51.750;5.888;2023-06-22T01:57:18;9.63;;;8.43;;
32319;SDS011;19080;51.750;5.888;2023-06-22T01:59:52;9.50;;;8.23;;
32319;SDS011;19080;51.750;5.888;2023-06-22T02:02:28;9.15;;;8.25;;
32319;SDS011;19080;51.750;5.888;2023-06-22T02:05:05;10.80;;;8.88;;
32319;SDS011;19080;51.750;5.888;2023-06-22T02:07:34;12.07;;;8.60;;
32319;SDS011;19080;51.750;5.888;2023-06-22T02:10:07;10.07;;;9.07;;
32319;SDS011;19080;51.750;5.888;2023-06-22T02:12:38;9.68;;;8.73;;
32319;SDS011;19080;51.750;5.888;2023-06-22T02:15:07;9.98;;;8.30;;
32319;SDS011;19080;51.750;5.888;2023-06-22T02:17:36;9.27;;;8.38;;
32319;SDS011;19080;51.750;5.888;2023-06-22T02:20:03;8.73;;;7.82;;
32319;SDS011;19080;51.750;5.888;2023-06-22T02:22:34;10.30;;;8.77;;
32319;SDS011;19080;51.750;5.888;2023-06-22T02:25:01;9.90;;;8.15;;
32319;SDS011;19080;51.750;5.888;2023-06-22T02:27:29;9.80;;;8.75;;
32319;SDS011;19080;51.750;5.888;2023-06-22T02:29:56;9.77;;;8.77;;
32319;SDS011;19080;51.750;5.888;2023-06-22T02:32:23;10.60;;;8.13;;
32319;SDS011;19080;51.750;5.888;2023-06-22T02:34:50;9.25;;;8.35;;
32319;SDS011;19080;51.750;5.888;2023-06-22T02:37:17;10.77;;;9.73;;
32319;SDS011;19080;51.750;5.888;2023-06-22T02:39:43;9.90;;;8.93;;
32319;SDS011;19080;51.750;5.888;2023-06-22T02:42:10;11.27;;;9.05;;
32319;SDS011;19080;51.750;5.888;2023-06-22T02:44:37;11.18;;;9.75;;
32319;SDS011;19080;51.750;5.888;2023-06-22T02:47:04;15.38;;;9.18;;
32319;SDS011;19080;51.750;5.888;2023-06-22T02:49:31;11.48;;;9.45;;
32319;SDS011;19080;51.750;5.888;2023-06-22T02:51:59;10.18;;;9.27;;
32319;SDS011;19080;51.750;5.888;2023-06-22T02:54:26;12.30;;;9.77;;
32319;SDS011;19080;51.750;5.888;2023-06-22T02:56:53;11.35;;;9.48;;
32319;SDS011;19080;51.750;5.888;2023-06-22T02:59:21;12.52;;;10.43;;
32319;SDS011;19080;51.750;5.888;2023-06-22T03:01:54;12.52;;;11.23;;
32319;SDS011;19080;51.750;5.888;2023-06-22T03:04:25;15.48;;;12.23;;
32319;SDS011;19080;51.750;5.888;2023-06-22T03:06:52;11.45;;;10.25;;
32319;SDS011;19080;51.750;5.888;2023-06-22T03:09:19;10.15;;;9.20;;
32319;SDS011;19080;51.750;5.888;2023-06-22T03:11:46;10.85;;;9.75;;
32319;SDS011;19080;51.750;5.888;2023-06-22T03:14:13;12.23;;;9.27;;
32319;SDS011;19080;51.750;5.888;2023-06-22T03:16:40;14.10;;;9.75;;
32319;SDS011;19080;51.750;5.888;2023-06-22T03:19:07;12.65;;;9.95;;
32319;SDS011;19080;51.750;5.888;2023-06-22T03:21:34;10.30;;;9.27;;
32319;SDS011;19080;51.750;5.888;2023-06-22T03:24:01;13.50;;;11.68;;
32319;SDS011;19080;51.750;5.888;2023-06-22T03:26:27;13.75;;;11.93;;
32319;SDS011;19080;51.750;5.888;2023-06-22T03:28:54;15.40;;;12.60;;
32319;SDS011;19080;51.750;5.888;2023-06-22T03:31:21;17.45;;;13.57;;
32319;SDS011;19080;51.750;5.888;2023-06-22T03:33:49;15.18;;;13.68;;
32319;SDS011;19080;51.750;5.888;2023-06-22T03:36:16;14.63;;;13.15;;
32319;SDS011;19080;51.750;5.888;2023-06-22T03:38:47;15.25;;;13.65;;
32319;SDS011;19080;51.750;5.888;2023-06-22T03:41:15;16.05;;;14.35;;
32319;SDS011;19080;51.750;5.888;2023-06-22T03:43:42;15.38;;;13.55;;
32319;SDS011;19080;51.750;5.888;2023-06-22T03:46:09;18.23;;;15.18;;
32319;SDS011;19080;51.750;5.888;2023-06-22T03:48:36;15.13;;;13.15;;
32319;SDS011;19080;51.750;5.888;2023-06-22T03:51:02;19.10;;;16.48;;
32319;SDS011;19080;51.750;5.888;2023-06-22T03:53:29;16.08;;;14.38;;
32319;SDS011;19080;51.750;5.888;2023-06-22T03:55:56;17.98;;;16.17;;
32319;SDS011;19080;51.750;5.888;2023-06-22T03:58:22;17.90;;;15.65;;
32319;SDS011;19080;51.750;5.888;2023-06-22T04:00:50;17.05;;;15.25;;
32319;SDS011;19080;51.750;5.888;2023-06-22T04:03:18;17.67;;;15.05;;
32319;SDS011;19080;51.750;5.888;2023-06-22T04:05:46;16.42;;;14.75;;
32319;SDS011;19080;51.750;5.888;2023-06-22T04:08:14;16.85;;;15.25;;
32319;SDS011;19080;51.750;5.888;2023-06-22T04:10:41;21.30;;;16.98;;
32319;SDS011;19080;51.750;5.888;2023-06-22T04:13:07;20.58;;;16.58;;
32319;SDS011;19080;51.750;5.888;2023-06-22T04:15:34;17.67;;;15.07;;
32319;SDS011;19080;51.750;5.888;2023-06-22T04:18:01;17.15;;;15.43;;
32319;SDS011;19080;51.750;5.888;2023-06-22T04:20:28;20.15;;;17.52;;
32319;SDS011;19080;51.750;5.888;2023-06-22T04:22:55;19.23;;;17.10;;
32319;SDS011;19080;51.750;5.888;2023-06-22T04:25:22;20.15;;;16.83;;
32319;SDS011;19080;51.750;5.888;2023-06-22T04:27:48;22.70;;;18.70;;
32319;SDS011;19080;51.750;5.888;2023-06-22T04:30:15;21.67;;;18.00;;
32319;SDS011;19080;51.750;5.888;2023-06-22T04:32:43;19.85;;;17.77;;
32319;SDS011;19080;51.750;5.888;2023-06-22T04:35:10;19.83;;;16.67;;
32319;SDS011;19080;51.750;5.888;2023-06-22T04:37:37;18.98;;;17.10;;
32319;SDS011;19080;51.750;5.888;2023-06-22T04:40:05;20.40;;;18.38;;
32319;SDS011;19080;51.750;5.888;2023-06-22T04:42:33;19.52;;;17.45;;
32319;SDS011;19080;51.750;5.888;2023-06-22T04:45:02;19.10;;;17.08;;
32319;SDS011;19080;51.750;5.888;2023-06-22T04:47:29;27.60;;;19.38;;
32319;SDS011;19080;51.750;5.888;2023-06-22T04:49:56;21.75;;;18.05;;
32319;SDS011;19080;51.750;5.888;2023-06-22T04:52:22;21.48;;;19.25;;
32319;SDS011;19080;51.750;5.888;2023-06-22T04:54:51;23.67;;;21.02;;
32319;SDS011;19080;51.750;5.888;2023-06-22T04:57:21;21.80;;;19.60;;
32319;SDS011;19080;51.750;5.888;2023-06-22T04:59:59;21.73;;;19.45;;
32319;SDS011;19080;51.750;5.888;2023-06-22T05:02:38;22.83;;;19.45;;
32319;SDS011;19080;51.750;5.888;2023-06-22T05:05:06;23.45;;;20.58;;
32319;SDS011;19080;51.750;5.888;2023-06-22T05:07:34;23.08;;;20.80;;
32319;SDS011;19080;51.750;5.888;2023-06-22T05:10:01;21.42;;;19.30;;
32319;SDS011;19080;51.750;5.888;2023-06-22T05:12:29;22.27;;;19.55;;
32319;SDS011;19080;51.750;5.888;2023-06-22T05:14:56;23.40;;;20.90;;
32319;SDS011;19080;51.750;5.888;2023-06-22T05:17:24;23.25;;;21.00;;
32319;SDS011;19080;51.750;5.888;2023-06-22T05:19:51;20.92;;;18.80;;
32319;SDS011;19080;51.750;5.888;2023-06-22T05:22:18;20.63;;;18.40;;
32319;SDS011;19080;51.750;5.888;2023-06-22T05:24:45;21.35;;;18.75;;
32319;SDS011;19080;51.750;5.888;2023-06-22T05:27:11;21.05;;;18.92;;
32319;SDS011;19080;51.750;5.888;2023-06-22T05:29:38;21.02;;;18.85;;
32319;SDS011;19080;51.750;5.888;2023-06-22T05:32:05;19.30;;;17.33;;
32319;SDS011;19080;51.750;5.888;2023-06-22T05:34:33;22.25;;;19.90;;
32319;SDS011;19080;51.750;5.888;2023-06-22T05:36:59;20.90;;;18.80;;
32319;SDS011;19080;51.750;5.888;2023-06-22T05:39:26;16.23;;;14.60;;
32319;SDS011;19080;51.750;5.888;2023-06-22T05:41:53;22.15;;;19.85;;
32319;SDS011;19080;51.750;5.888;2023-06-22T05:44:19;20.67;;;18.45;;
32319;SDS011;19080;51.750;5.888;2023-06-22T05:46:46;18.55;;;16.65;;
32319;SDS011;19080;51.750;5.888;2023-06-22T05:49:14;17.30;;;15.48;;
32319;SDS011;19080;51.750;5.888;2023-06-22T05:51:42;17.13;;;15.32;;
32319;SDS011;19080;51.750;5.888;2023-06-22T05:54:09;20.20;;;18.10;;
32319;SDS011;19080;51.750;5.888;2023-06-22T05:56:36;18.60;;;16.80;;
32319;SDS011;19080;51.750;5.888;2023-06-22T05:59:03;19.02;;;16.67;;
32319;SDS011;19080;51.750;5.888;2023-06-22T06:01:30;17.05;;;15.38;;
32319;SDS011;19080;51.750;5.888;2023-06-22T06:04:02;18.77;;;16.92;;
32319;SDS011;19080;51.750;5.888;2023-06-22T06:06:30;19.30;;;17.30;;
32319;SDS011;19080;51.750;5.888;2023-06-22T06:08:57;20.27;;;17.98;;
32319;SDS011;19080;51.750;5.888;2023-06-22T06:11:25;24.42;;;18.60;;
32319;SDS011;19080;51.750;5.888;2023-06-22T06:13:52;21.58;;;18.70;;
32319;SDS011;19080;51.750;5.888;2023-06-22T06:16:18;22.85;;;18.23;;
32319;SDS011;19080;51.750;5.888;2023-06-22T06:18:45;19.67;;;17.55;;
32319;SDS011;19080;51.750;5.888;2023-06-22T06:21:12;19.52;;;16.23;;
32319;SDS011;19080;51.750;5.888;2023-06-22T06:23:38;19.90;;;17.83;;
32319;SDS011;19080;51.750;5.888;2023-06-22T06:26:05;20.25;;;16.95;;
32319;SDS011;19080;51.750;5.888;2023-06-22T06:28:33;18.65;;;16.80;;
32319;SDS011;19080;51.750;5.888;2023-06-22T06:31:01;18.25;;;16.42;;
32319;SDS011;19080;51.750;5.888;2023-06-22T06:33:27;17.92;;;16.02;;
32319;SDS011;19080;51.750;5.888;2023-06-22T06:35:54;18.10;;;16.17;;
32319;SDS011;19080;51.750;5.888;2023-06-22T06:38:22;18.77;;;16.98;;
32319;SDS011;19080;51.750;5.888;2023-06-22T06:40:49;20.38;;;18.15;;
32319;SDS011;19080;51.750;5.888;2023-06-22T06:43:16;17.80;;;15.93;;
32319;SDS011;19080;51.750;5.888;2023-06-22T06:45:42;19.08;;;16.90;;
32319;SDS011;19080;51.750;5.888;2023-06-22T06:48:09;17.17;;;14.25;;
32319;SDS011;19080;51.750;5.888;2023-06-22T06:50:36;17.38;;;15.65;;
32319;SDS011;19080;51.750;5.888;2023-06-22T06:53:03;17.98;;;16.17;;
32319;SDS011;19080;51.750;5.888;2023-06-22T06:55:29;17.85;;;16.15;;
32319;SDS011;19080;51.750;5.888;2023-06-22T06:57:59;19.65;;;16.98;;
32319;SDS011;19080;51.750;5.888;2023-06-22T07:00:26;18.05;;;16.27;;
32319;SDS011;19080;51.750;5.888;2023-06-22T07:02:53;17.17;;;15.57;;
32319;SDS011;19080;51.750;5.888;2023-06-22T07:05:20;18.38;;;15.10;;
32319;SDS011;19080;51.750;5.888;2023-06-22T07:07:47;17.42;;;15.35;;
32319;SDS011;19080;51.750;5.888;2023-06-22T07:10:13;17.20;;;15.57;;
32319;SDS011;19080;51.750;5.888;2023-06-22T07:12:41;17.55;;;15.85;;
32319;SDS011;19080;51.750;5.888;2023-06-22T07:15:08;17.88;;;16.08;;
32319;SDS011;19080;51.750;5.888;2023-06-22T07:17:36;16.48;;;14.98;;
32319;SDS011;19080;51.750;5.888;2023-06-22T07:20:03;16.67;;;14.98;;
32319;SDS011;19080;51.750;5.888;2023-06-22T07:22:51;18.58;;;16.77;;
32319;SDS011;19080;51.750;5.888;2023-06-22T07:25:18;19.58;;;17.58;;
32319;SDS011;19080;51.750;5.888;2023-06-22T07:27:46;17.73;;;15.90;;
32319;SDS011;19080;51.750;5.888;2023-06-22T07:30:23;19.48;;;17.45;;
32319;SDS011;19080;51.750;5.888;2023-06-22T07:32:50;20.40;;;17.45;;
32319;SDS011;19080;51.750;5.888;2023-06-22T07:35:17;19.35;;;17.35;;
32319;SDS011;19080;51.750;5.888;2023-06-22T07:37:44;19.70;;;17.70;;
32319;SDS011;19080;51.750;5.888;2023-06-22T07:40:11;17.20;;;15.57;;
32319;SDS011;19080;51.750;5.888;2023-06-22T07:42:38;19.88;;;17.77;;
32319;SDS011;19080;51.750;5.888;2023-06-22T07:45:06;19.38;;;17.30;;
32319;SDS011;19080;51.750;5.888;2023-06-22T07:47:37;20.20;;;18.13;;
32319;SDS011;19080;51.750;5.888;2023-06-22T07:50:04;22.85;;;19.08;;
32319;SDS011;19080;51.750;5.888;2023-06-22T07:52:31;24.45;;;19.38;;
32319;SDS011;19080;51.750;5.888;2023-06-22T07:54:58;20.70;;;18.45;;
32319;SDS011;19080;51.750;5.888;2023-06-22T07:57:25;20.52;;;18.25;;
32319;SDS011;19080;51.750;5.888;2023-06-22T08:00:00;22.13;;;19.90;;
32319;SDS011;19080;51.750;5.888;2023-06-22T08:02:38;26.42;;;18.67;;
32319;SDS011;19080;51.750;5.888;2023-06-22T08:05:05;22.67;;;17.95;;
32319;SDS011;19080;51.750;5.888;2023-06-22T08:07:48;21.92;;;18.77;;
32319;SDS011;19080;51.750;5.888;2023-06-22T08:10:16;17.38;;;15.68;;
32319;SDS011;19080;51.750;5.888;2023-06-22T08:12:43;21.25;;;18.15;;
32319;SDS011;19080;51.750;5.888;2023-06-22T08:15:10;18.13;;;16.25;;
32319;SDS011;19080;51.750;5.888;2023-06-22T08:17:40;19.33;;;17.42;;
32319;SDS011;19080;51.750;5.888;2023-06-22T08:20:07;17.88;;;15.93;;
32319;SDS011;19080;51.750;5.888;2023-06-22T08:22:41;19.85;;;16.80;;
32319;SDS011;19080;51.750;5.888;2023-06-22T08:25:09;16.60;;;15.00;;
32319;SDS011;19080;51.750;5.888;2023-06-22T08:27:36;18.35;;;16.38;;
32319;SDS011;19080;51.750;5.888;2023-06-22T08:30:03;17.05;;;15.45;;
32319;SDS011;19080;51.750;5.888;2023-06-22T08:32:31;18.10;;;16.23;;
32319;SDS011;19080;51.750;5.888;2023-06-22T08:34:59;17.70;;;15.77;;
32319;SDS011;19080;51.750;5.888;2023-06-22T08:37:26;18.30;;;16.40;;
32319;SDS011;19080;51.750;5.888;2023-06-22T08:39:58;16.67;;;14.93;;
32319;SDS011;19080;51.750;5.888;2023-06-22T08:42:25;16.58;;;14.85;;
32319;SDS011;19080;51.750;5.888;2023-06-22T08:44:52;17.52;;;15.35;;
32319;SDS011;19080;51.750;5.888;2023-06-22T08:47:20;16.48;;;14.80;;
32319;SDS011;19080;51.750;5.888;2023-06-22T08:49:47;17.35;;;15.65;;
32319;SDS011;19080;51.750;5.888;2023-06-22T08:52:14;17.80;;;15.27;;
32319;SDS011;19080;51.750;5.888;2023-06-22T08:54:41;17.85;;;15.38;;
32319;SDS011;19080;51.750;5.888;2023-06-22T08:57:08;18.40;;;16.13;;
32319;SDS011;19080;51.750;5.888;2023-06-22T08:59:34;16.98;;;15.30;;
32319;SDS011;19080;51.750;5.888;2023-06-22T09:02:01;16.73;;;15.13;;
32319;SDS011;19080;51.750;5.888;2023-06-22T09:04:28;17.63;;;15.70;;
32319;SDS011;19080;51.750;5.888;2023-06-22T09:06:54;16.13;;;14.63;;
32319;SDS011;19080;51.750;5.888;2023-06-22T09:09:21;14.48;;;13.18;;
32319;SDS011;19080;51.750;5.888;2023-06-22T09:11:48;16.60;;;15.00;;
32319;SDS011;19080;51.750;5.888;2023-06-22T09:14:15;16.88;;;15.30;;
32319;SDS011;19080;51.750;5.888;2023-06-22T09:16:42;15.80;;;13.98;;
32319;SDS011;19080;51.750;5.888;2023-06-22T09:19:08;17.00;;;14.30;;
32319;SDS011;19080;51.750;5.888;2023-06-22T09:21:35;15.75;;;14.10;;
32319;SDS011;19080;51.750;5.888;2023-06-22T09:24:02;15.13;;;13.63;;
32319;SDS011;19080;51.750;5.888;2023-06-22T09:26:29;16.60;;;14.88;;
32319;SDS011;19080;51.750;5.888;2023-06-22T09:28:56;15.25;;;12.48;;
32319;SDS011;19080;51.750;5.888;2023-06-22T09:31:24;17.60;;;13.82;;
32319;SDS011;19080;51.750;5.888;2023-06-22T09:33:54;15.77;;;13.98;;
32319;SDS011;19080;51.750;5.888;2023-06-22T09:36:21;17.25;;;13.75;;
32319;SDS011;19080;51.750;5.888;2023-06-22T09:38:48;14.90;;;13.38;;
32319;SDS011;19080;51.750;5.888;2023-06-22T09:41:15;15.57;;;13.65;;
32319;SDS011;19080;51.750;5.888;2023-06-22T09:43:42;14.30;;;12.82;;
32319;SDS011;19080;51.750;5.888;2023-06-22T09:46:09;14.57;;;12.48;;
32319;SDS011;19080;51.750;5.888;2023-06-22T09:48:36;16.73;;;14.15;;
32319;SDS011;19080;51.750;5.888;2023-06-22T09:51:06;14.77;;;12.18;;
32319;SDS011;19080;51.750;5.888;2023-06-22T09:53:33;14.68;;;13.25;;
32319;SDS011;19080;51.750;5.888;2023-06-22T09:56:01;14.38;;;12.82;;
32319;SDS011;19080;51.750;5.888;2023-06-22T09:58:28;14.60;;;12.20;;
32319;SDS011;19080;51.750;5.888;2023-06-22T10:00:55;14.35;;;12.82;;
32319;SDS011;19080;51.750;5.888;2023-06-22T10:03:21;15.38;;;13.77;;
32319;SDS011;19080;51.750;5.888;2023-06-22T10:05:49;14.43;;;13.02;;
32319;SDS011;19080;51.750;5.888;2023-06-22T10:08:16;14.98;;;12.88;;
32319;SDS011;19080;51.750;5.888;2023-06-22T10:10:42;12.35;;;11.05;;
32319;SDS011;19080;51.750;5.888;2023-06-22T10:13:09;12.85;;;10.60;;
32319;SDS011;19080;51.750;5.888;2023-06-22T10:15:37;14.13;;;12.85;;
32319;SDS011;19080;51.750;5.888;2023-06-22T10:18:04;14.77;;;13.27;;
32319;SDS011;19080;51.750;5.888;2023-06-22T10:20:31;13.20;;;11.68;;
32319;SDS011;19080;51.750;5.888;2023-06-22T10:22:58;14.98;;;13.40;;
32319;SDS011;19080;51.750;5.888;2023-06-22T10:25:26;16.48;;;13.48;;
32319;SDS011;19080;51.750;5.888;2023-06-22T10:27:53;14.75;;;13.27;;
32319;SDS011;19080;51.750;5.888;2023-06-22T10:30:19;14.93;;;13.45;;
32319;SDS011;19080;51.750;5.888;2023-06-22T10:32:46;14.63;;;13.13;;
32319;SDS011;19080;51.750;5.888;2023-06-22T10:35:13;19.25;;;14.10;;
32319;SDS011;19080;51.750;5.888;2023-06-22T10:37:43;16.17;;;13.65;;
32319;SDS011;19080;51.750;5.888;2023-06-22T10:40:14;16.02;;;14.10;;
32319;SDS011;19080;51.750;5.888;2023-06-22T10:42:42;16.35;;;13.85;;
32319;SDS011;19080;51.750;5.888;2023-06-22T10:45:09;16.55;;;12.80;;
32319;SDS011;19080;51.750;5.888;2023-06-22T10:47:36;14.98;;;13.50;;
32319;SDS011;19080;51.750;5.888;2023-06-22T10:50:03;17.80;;;13.75;;
32319;SDS011;19080;51.750;5.888;2023-06-22T10:52:31;15.05;;;13.43;;
32319;SDS011;19080;51.750;5.888;2023-06-22T10:54:57;16.20;;;13.25;;
32319;SDS011;19080;51.750;5.888;2023-06-22T10:57:24;12.43;;;11.10;;
32319;SDS011;19080;51.750;5.888;2023-06-22T10:59:51;13.98;;;12.00;;
32319;SDS011;19080;51.750;5.888;2023-06-22T11:02:17;13.20;;;11.27;;
32319;SDS011;19080;51.750;5.888;2023-06-22T11:04:44;14.20;;;12.98;;
32319;SDS011;19080;51.750;5.888;2023-06-22T11:07:12;14.95;;;13.45;;
32319;SDS011;19080;51.750;5.888;2023-06-22T11:09:39;11.70;;;10.57;;
32319;SDS011;19080;51.750;5.888;2023-06-22T11:12:06;13.55;;;11.48;;
32319;SDS011;19080;51.750;5.888;2023-06-22T11:14:34;11.80;;;10.55;;
32319;SDS011;19080;51.750;5.888;2023-06-22T11:17:01;10.55;;;9.13;;
32319;SDS011;19080;51.750;5.888;2023-06-22T11:19:27;12.93;;;11.30;;
32319;SDS011;19080;51.750;5.888;2023-06-22T11:21:54;11.63;;;10.40;;
32319;SDS011;19080;51.750;5.888;2023-06-22T11:24:20;13.38;;;10.55;;
32319;SDS011;19080;51.750;5.888;2023-06-22T11:26:47;14.88;;;11.40;;
32319;SDS011;19080;51.750;5.888;2023-06-22T11:29:14;12.90;;;11.55;;
32319;SDS011;19080;51.750;5.888;2023-06-22T11:31:57;16.45;;;12.75;;
32319;SDS011;19080;51.750;5.888;2023-06-22T11:34:24;11.40;;;10.27;;
32319;SDS011;19080;51.750;5.888;2023-06-22T11:36:51;13.98;;;12.38;;
32319;SDS011;19080;51.750;5.888;2023-06-22T11:39:17;12.30;;;11.05;;
32319;SDS011;19080;51.750;5.888;2023-06-22T11:41:55;13.57;;;12.25;;
32319;SDS011;19080;51.750;5.888;2023-06-22T11:44:21;17.17;;;15.48;;
32319;SDS011;19080;51.750;5.888;2023-06-22T11:46:48;14.05;;;12.75;;
32319;SDS011;19080;51.750;5.888;2023-06-22T11:49:15;15.07;;;13.57;;
32319;SDS011;19080;51.750;5.888;2023-06-22T11:51:41;15.63;;;14.13;;
32319;SDS011;19080;51.750;5.888;2023-06-22T11:54:08;18.08;;;16.15;;
32319;SDS011;19080;51.750;5.888;2023-06-22T11:56:34;19.02;;;16.42;;
32319;SDS011;19080;51.750;5.888;2023-06-22T11:59:01;18.67;;;16.88;;
32319;SDS011;19080;51.750;5.888;2023-06-22T12:01:27;18.10;;;16.33;;
32319;SDS011;19080;51.750;5.888;2023-06-22T12:03:54;19.67;;;17.65;;
32319;SDS011;19080;51.750;5.888;2023-06-22T12:06:21;18.73;;;16.92;;
32319;SDS011;19080;51.750;5.888;2023-06-22T12:08:48;20.63;;;18.48;;
32319;SDS011;19080;51.750;5.888;2023-06-22T12:11:14;24.10;;;21.65;;
32319;SDS011;19080;51.750;5.888;2023-06-22T12:13:41;24.20;;;21.90;;
32319;SDS011;19080;51.750;5.888;2023-06-22T12:16:07;24.92;;;22.52;;
32319;SDS011;19080;51.750;5.888;2023-06-22T12:18:34;25.52;;;23.00;;
32319;SDS011;19080;51.750;5.888;2023-06-22T12:21:01;24.95;;;22.45;;
32319;SDS011;19080;51.750;5.888;2023-06-22T12:23:27;26.58;;;23.80;;
32319;SDS011;19080;51.750;5.888;2023-06-22T12:25:54;27.02;;;24.40;;
32319;SDS011;19080;51.750;5.888;2023-06-22T12:28:21;29.10;;;26.17;;
32319;SDS011;19080;51.750;5.888;2023-06-22T12:30:49;26.77;;;23.70;;
32319;SDS011;19080;51.750;5.888;2023-06-22T12:33:16;30.67;;;27.55;;
32319;SDS011;19080;51.750;5.888;2023-06-22T12:35:43;28.02;;;25.20;;
32319;SDS011;19080;51.750;5.888;2023-06-22T12:38:11;28.98;;;26.08;;
32319;SDS011;19080;51.750;5.888;2023-06-22T12:40:38;26.42;;;23.70;;
32319;SDS011;19080;51.750;5.888;2023-06-22T12:43:04;25.08;;;22.52;;
32319;SDS011;19080;51.750;5.888;2023-06-22T12:45:31;25.45;;;23.15;;
32319;SDS011;19080;51.750;5.888;2023-06-22T12:48:00;26.60;;;23.90;;
32319;SDS011;19080;51.750;5.888;2023-06-22T12:50:27;25.13;;;22.65;;
32319;SDS011;19080;51.750;5.888;2023-06-22T12:52:54;24.38;;;21.98;;
32319;SDS011;19080;51.750;5.888;2023-06-22T12:55:20;24.13;;;21.60;;
32319;SDS011;19080;51.750;5.888;2023-06-22T12:57:47;23.10;;;20.73;;
32319;SDS011;19080;51.750;5.888;2023-06-22T13:00:14;24.48;;;22.02;;
32319;SDS011;19080;51.750;5.888;2023-06-22T13:02:41;22.25;;;20.02;;
32319;SDS011;19080;51.750;5.888;2023-06-22T13:05:09;25.38;;;22.30;;
32319;SDS011;19080;51.750;5.888;2023-06-22T13:07:35;22.08;;;20.13;;
32319;SDS011;19080;51.750;5.888;2023-06-22T13:10:02;21.55;;;19.23;;
32319;SDS011;19080;51.750;5.888;2023-06-22T13:12:30;21.17;;;19.10;;
32319;SDS011;19080;51.750;5.888;2023-06-22T13:14:56;20.45;;;18.45;;
32319;SDS011;19080;51.750;5.888;2023-06-22T13:17:23;19.67;;;17.75;;
32319;SDS011;19080;51.750;5.888;2023-06-22T13:19:50;17.63;;;15.93;;
32319;SDS011;19080;51.750;5.888;2023-06-22T13:22:30;18.35;;;16.60;;
32319;SDS011;19080;51.750;5.888;2023-06-22T13:24:59;19.58;;;17.70;;
32319;SDS011;19080;51.750;5.888;2023-06-22T13:27:26;17.15;;;15.55;;
32319;SDS011;19080;51.750;5.888;2023-06-22T13:29:53;17.33;;;15.73;;
32319;SDS011;19080;51.750;5.888;2023-06-22T13:32:20;17.40;;;15.80;;
32319;SDS011;19080;51.750;5.888;2023-06-22T13:34:46;16.05;;;14.50;;
32319;SDS011;19080;51.750;5.888;2023-06-22T13:37:13;17.70;;;16.05;;
32319;SDS011;19080;51.750;5.888;2023-06-22T13:39:40;17.30;;;15.77;;
32319;SDS011;19080;51.750;5.888;2023-06-22T13:42:07;18.10;;;16.35;;
32319;SDS011;19080;51.750;5.888;2023-06-22T13:44:34;17.17;;;15.68;;
32319;SDS011;19080;51.750;5.888;2023-06-22T13:47:00;19.73;;;17.92;;
32319;SDS011;19080;51.750;5.888;2023-06-22T13:49:27;19.17;;;17.38;;
32319;SDS011;19080;51.750;5.888;2023-06-22T13:51:54;20.00;;;18.02;;
32319;SDS011;19080;51.750;5.888;2023-06-22T13:54:21;18.98;;;17.08;;
32319;SDS011;19080;51.750;5.888;2023-06-22T13:56:55;18.55;;;16.80;;
32319;SDS011;19080;51.750;5.888;2023-06-22T13:59:22;20.63;;;18.77;;
32319;SDS011;19080;51.750;5.888;2023-06-22T14:01:49;19.85;;;17.95;;
32319;SDS011;19080;51.750;5.888;2023-06-22T14:04:15;18.58;;;16.88;;
32319;SDS011;19080;51.750;5.888;2023-06-22T14:06:42;21.38;;;19.35;;
32319;SDS011;19080;51.750;5.888;2023-06-22T14:09:09;21.15;;;19.02;;
32319;SDS011;19080;51.750;5.888;2023-06-22T14:11:35;22.05;;;19.83;;
32319;SDS011;19080;51.750;5.888;2023-06-22T14:14:02;23.38;;;21.08;;
32319;SDS011;19080;51.750;5.888;2023-06-22T14:16:29;21.00;;;19.13;;
32319;SDS011;19080;51.750;5.888;2023-06-22T14:18:55;22.50;;;20.40;;
32319;SDS011;19080;51.750;5.888;2023-06-22T14:21:23;21.90;;;19.90;;
32319;SDS011;19080;51.750;5.888;2023-06-22T14:23:51;23.05;;;20.83;;
32319;SDS011;19080;51.750;5.888;2023-06-22T14:26:17;24.02;;;21.30;;
32319;SDS011;19080;51.750;5.888;2023-06-22T14:28:45;21.70;;;19.60;;
32319;SDS011;19080;51.750;5.888;2023-06-22T14:31:17;22.60;;;20.35;;
32319;SDS011;19080;51.750;5.888;2023-06-22T14:33:48;25.23;;;22.73;;
32319;SDS011;19080;51.750;5.888;2023-06-22T14:36:16;23.67;;;21.25;;
32319;SDS011;19080;51.750;5.888;2023-06-22T14:38:46;22.65;;;20.55;;